sensor_id;sensor_type;location;lat;lon;timestamp;pressure;altitude;pressure_sealevel;temperature;humidity
76285;BME280;71676;50.998;7.098;2023-08-31T00:00:40;100277.38;;;12.61;67.57
76285;BME280;71676;50.998;7.098;2023-08-31T00:03:08;100276.53;;;12.62;67.57
76285;BME280;71676;50.998;7.098;2023-08-31T00:05:37;100269.59;;;12.62;67.56
76285;BME280;71676;50.998;7.098;2023-08-31T00:08:05;100274.78;;;12.62;67.19
76285;BME280;71676;50.998;7.098;2023-08-31T00:10:32;100267.88;;;12.63;67.80
76285;BME280;71676;50.998;7.098;2023-08-31T00:12:58;100275.69;;;12.60;67.80
76285;BME280;71676;50.998;7.098;2023-08-31T00:15:25;100281.69;;;12.60;67.49
76285;BME280;71676;50.998;7.098;2023-08-31T00:17:53;100277.38;;;12.61;67.69
76285;BME280;71676;50.998;7.098;2023-08-31T00:20:21;100279.97;;;12.61;67.69
76285;BME280;71676;50.998;7.098;2023-08-31T00:22:48;100273.09;;;12.60;67.24
76285;BME280;71676;50.998;7.098;2023-08-31T00:25:15;100275.69;;;12.58;67.57
76285;BME280;71676;50.998;7.098;2023-08-31T00:27:41;100267.06;;;12.58;67.64
76285;BME280;71676;50.998;7.098;2023-08-31T00:30:10;100256.75;;;12.50;67.57
76285;BME280;71676;50.998;7.098;2023-08-31T00:32:39;100258.47;;;12.50;67.79
76285;BME280;71676;50.998;7.098;2023-08-31T00:35:08;100261.94;;;12.50;68.06
76285;BME280;71676;50.998;7.098;2023-08-31T00:37:36;100262.75;;;12.52;67.89
76285;BME280;71676;50.998;7.098;2023-08-31T00:40:04;100267.94;;;12.52;68.01
76285;BME280;71676;50.998;7.098;2023-08-31T00:42:34;100263.63;;;12.51;67.82
76285;BME280;71676;50.998;7.098;2023-08-31T00:45:00;100266.22;;;12.51;67.58
76285;BME280;71676;50.998;7.098;2023-08-31T00:47:27;100269.69;;;12.52;67.92
76285;BME280;71676;50.998;7.098;2023-08-31T00:49:54;100274.00;;;12.50;67.72
76285;BME280;71676;50.998;7.098;2023-08-31T00:52:21;100266.22;;;12.51;68.01
76285;BME280;71676;50.998;7.098;2023-08-31T00:54:51;100272.28;;;12.49;67.73
76285;BME280;71676;50.998;7.098;2023-08-31T00:57:18;100280.03;;;12.50;67.57
76285;BME280;71676;50.998;7.098;2023-08-31T00:59:45;100280.91;;;12.48;67.73
76285;BME280;71676;50.998;7.098;2023-08-31T01:02:19;100276.59;;;12.48;67.84
76285;BME280;71676;50.998;7.098;2023-08-31T01:04:58;100274.91;;;12.46;68.05
76285;BME280;71676;50.998;7.098;2023-08-31T01:07:39;100265.50;;;12.37;68.05
76285;BME280;71676;50.998;7.098;2023-08-31T01:10:19;100278.34;;;12.43;67.73
76285;BME280;71676;50.998;7.098;2023-08-31T01:12:53;100280.09;;;12.44;67.50
76285;BME280;71676;50.998;7.098;2023-08-31T01:15:21;100266.34;;;12.35;67.95
76285;BME280;71676;50.998;7.098;2023-08-31T01:17:49;100277.50;;;12.41;67.65
76285;BME280;71676;50.998;7.098;2023-08-31T01:20:19;100277.53;;;12.40;67.84
76285;BME280;71676;50.998;7.098;2023-08-31T01:22:55;100279.25;;;12.41;67.96
76285;BME280;71676;50.998;7.098;2023-08-31T01:25:25;100277.53;;;12.40;67.81
76285;BME280;71676;50.998;7.098;2023-08-31T01:27:52;100276.69;;;12.39;67.75
76285;BME280;71676;50.998;7.098;2023-08-31T01:30:19;100277.53;;;12.40;68.04
76285;BME280;71676;50.998;7.098;2023-08-31T01:32:47;100274.09;;;12.39;68.05
76285;BME280;71676;50.998;7.098;2023-08-31T01:35:15;100286.16;;;12.39;67.83
76285;BME280;71676;50.998;7.098;2023-08-31T01:37:45;100273.25;;;12.37;67.96
76285;BME280;71676;50.998;7.098;2023-08-31T01:40:17;100281.00;;;12.39;67.92
76285;BME280;71676;50.998;7.098;2023-08-31T01:42:47;100289.63;;;12.38;68.23
76285;BME280;71676;50.998;7.098;2023-08-31T01:45:16;100284.47;;;12.36;67.94
76285;BME280;71676;50.998;7.098;2023-08-31T01:47:44;100285.34;;;12.34;67.79
76285;BME280;71676;50.998;7.098;2023-08-31T01:50:12;100287.94;;;12.32;68.01
76285;BME280;71676;50.998;7.098;2023-08-31T01:52:39;100298.28;;;12.32;67.88
76285;BME280;71676;50.998;7.098;2023-08-31T01:55:06;100297.41;;;12.30;67.66
76285;BME280;71676;50.998;7.098;2023-08-31T01:57:33;100297.44;;;12.29;67.72
76285;BME280;71676;50.998;7.098;2023-08-31T02:00:01;100300.03;;;12.27;67.76
76285;BME280;71676;50.998;7.098;2023-08-31T02:02:29;100295.75;;;12.25;67.89
76285;BME280;71676;50.998;7.098;2023-08-31T02:04:56;100300.94;;;12.23;67.71
76285;BME280;71676;50.998;7.098;2023-08-31T02:07:26;100289.75;;;12.20;67.92
76285;BME280;71676;50.998;7.098;2023-08-31T02:09:53;100288.88;;;12.21;67.72
76285;BME280;71676;50.998;7.098;2023-08-31T02:12:19;100290.59;;;12.17;67.84
76285;BME280;71676;50.998;7.098;2023-08-31T02:14:46;100304.41;;;12.16;67.73
76285;BME280;71676;50.998;7.098;2023-08-31T02:17:14;100305.28;;;12.15;67.85
76285;BME280;71676;50.998;7.098;2023-08-31T02:19:41;100304.44;;;12.13;67.80
76285;BME280;71676;50.998;7.098;2023-08-31T02:22:08;100301.03;;;12.08;67.80
76285;BME280;71676;50.998;7.098;2023-08-31T02:24:34;100309.63;;;12.10;67.70
76285;BME280;71676;50.998;7.098;2023-08-31T02:27:01;100305.31;;;12.09;67.32
76285;BME280;71676;50.998;7.098;2023-08-31T02:29:28;100311.38;;;12.07;67.94
76285;BME280;71676;50.998;7.098;2023-08-31T02:31:54;100306.22;;;12.05;67.28
76285;BME280;71676;50.998;7.098;2023-08-31T02:34:22;100307.94;;;12.04;67.33
76285;BME280;71676;50.998;7.098;2023-08-31T02:36:49;100310.53;;;12.01;67.38
76285;BME280;71676;50.998;7.098;2023-08-31T02:39:15;100313.13;;;11.98;67.43
76285;BME280;71676;50.998;7.098;2023-08-31T02:41:42;100312.28;;;11.96;67.54
76285;BME280;71676;50.998;7.098;2023-08-31T02:44:10;100308.88;;;11.94;67.58
76285;BME280;71676;50.998;7.098;2023-08-31T02:46:37;100312.28;;;11.95;67.36
76285;BME280;71676;50.998;7.098;2023-08-31T02:49:04;100310.59;;;11.92;67.36
76285;BME280;71676;50.998;7.098;2023-08-31T02:51:32;100308.84;;;11.91;67.72
76285;BME280;71676;50.998;7.098;2023-08-31T02:53:59;100314.03;;;11.90;67.68
76285;BME280;71676;50.998;7.098;2023-08-31T02:56:25;100308.88;;;11.88;67.48
76285;BME280;71676;50.998;7.098;2023-08-31T02:58:52;100312.34;;;11.87;67.84
76285;BME280;71676;50.998;7.098;2023-08-31T03:01:19;100315.81;;;11.86;67.69
76285;BME280;71676;50.998;7.098;2023-08-31T03:03:45;100319.22;;;11.87;67.78
76285;BME280;71676;50.998;7.098;2023-08-31T03:06:12;100309.78;;;11.86;67.32
76285;BME280;71676;50.998;7.098;2023-08-31T03:08:41;100320.09;;;11.86;67.71
76285;BME280;71676;50.998;7.098;2023-08-31T03:11:08;100313.19;;;11.85;67.25
76285;BME280;71676;50.998;7.098;2023-08-31T03:13:35;100307.19;;;11.84;67.22
76285;BME280;71676;50.998;7.098;2023-08-31T03:16:02;100315.81;;;11.82;67.74
76285;BME280;71676;50.998;7.098;2023-08-31T03:18:29;100312.41;;;11.78;67.24
76285;BME280;71676;50.998;7.098;2023-08-31T03:20:55;100305.50;;;11.79;67.65
76285;BME280;71676;50.998;7.098;2023-08-31T03:23:22;100312.41;;;11.77;67.56
76285;BME280;71676;50.998;7.098;2023-08-31T03:25:50;100311.53;;;11.78;67.26
76285;BME280;71676;50.998;7.098;2023-08-31T03:28:17;100312.38;;;11.75;67.41
76285;BME280;71676;50.998;7.098;2023-08-31T03:30:43;100314.97;;;11.75;67.05
76285;BME280;71676;50.998;7.098;2023-08-31T03:33:10;100311.56;;;11.73;67.77
76285;BME280;71676;50.998;7.098;2023-08-31T03:35:37;100312.41;;;11.72;67.22
76285;BME280;71676;50.998;7.098;2023-08-31T03:38:04;100307.22;;;11.74;67.40
76285;BME280;71676;50.998;7.098;2023-08-31T03:40:31;100312.41;;;11.72;67.69
76285;BME280;71676;50.998;7.098;2023-08-31T03:42:59;100317.56;;;11.72;67.78
76285;BME280;71676;50.998;7.098;2023-08-31T03:45:25;100278.09;;;11.43;67.35
76285;BME280;71676;50.998;7.098;2023-08-31T03:47:52;100327.06;;;11.67;67.65
76285;BME280;71676;50.998;7.098;2023-08-31T03:50:19;100280.66;;;11.40;67.81
76285;BME280;71676;50.998;7.098;2023-08-31T03:52:45;100322.75;;;11.71;67.96
76285;BME280;71676;50.998;7.098;2023-08-31T03:55:12;100326.22;;;11.70;67.78
76285;BME280;71676;50.998;7.098;2023-08-31T03:57:38;100322.75;;;11.69;67.77
76285;BME280;71676;50.998;7.098;2023-08-31T04:00:08;100328.78;;;11.70;68.17
76285;BME280;71676;50.998;7.098;2023-08-31T04:02:37;100327.06;;;11.73;68.04
76285;BME280;71676;50.998;7.098;2023-08-31T04:05:04;100326.19;;;11.71;67.71
76285;BME280;71676;50.998;7.098;2023-08-31T04:07:34;100330.50;;;11.72;67.72
76285;BME280;71676;50.998;7.098;2023-08-31T04:10:00;100335.66;;;11.72;68.13
76285;BME280;71676;50.998;7.098;2023-08-31T04:12:27;100335.66;;;11.72;68.05
76285;BME280;71676;50.998;7.098;2023-08-31T04:14:55;100338.25;;;11.72;68.18
76285;BME280;71676;50.998;7.098;2023-08-31T04:17:23;100329.66;;;11.72;68.25
76285;BME280;71676;50.998;7.098;2023-08-31T04:19:50;100330.50;;;11.72;68.40
76285;BME280;71676;50.998;7.098;2023-08-31T04:22:16;100334.81;;;11.73;68.02
76285;BME280;71676;50.998;7.098;2023-08-31T04:24:43;100329.66;;;11.72;68.55
76285;BME280;71676;50.998;7.098;2023-08-31T04:27:10;100333.94;;;11.74;68.67
76285;BME280;71676;50.998;7.098;2023-08-31T04:29:37;100331.34;;;11.74;68.62
76285;BME280;71676;50.998;7.098;2023-08-31T04:32:04;100333.06;;;11.75;68.54
76285;BME280;71676;50.998;7.098;2023-08-31T04:34:32;100335.66;;;11.77;68.28
76285;BME280;71676;50.998;7.098;2023-08-31T04:37:00;100346.81;;;11.77;68.63
76285;BME280;71676;50.998;7.098;2023-08-31T04:39:27;100344.25;;;11.79;68.31
76285;BME280;71676;50.998;7.098;2023-08-31T04:41:53;100346.81;;;11.80;68.69
76285;BME280;71676;50.998;7.098;2023-08-31T04:44:20;100360.59;;;11.79;68.79
76285;BME280;71676;50.998;7.098;2023-08-31T04:46:47;100358.03;;;11.79;68.78
76285;BME280;71676;50.998;7.098;2023-08-31T04:49:14;100365.75;;;11.81;68.45
76285;BME280;71676;50.998;7.098;2023-08-31T04:51:44;100359.72;;;11.83;68.93
76285;BME280;71676;50.998;7.098;2023-08-31T04:54:11;100359.72;;;11.83;68.90
76285;BME280;71676;50.998;7.098;2023-08-31T04:56:37;100358.91;;;11.78;68.76
76285;BME280;71676;50.998;7.098;2023-08-31T04:59:04;100370.03;;;11.83;68.60
76285;BME280;71676;50.998;7.098;2023-08-31T05:01:31;100377.78;;;11.83;68.82
76285;BME280;71676;50.998;7.098;2023-08-31T05:03:57;100371.78;;;11.86;68.78
76285;BME280;71676;50.998;7.098;2023-08-31T05:06:24;100384.69;;;11.86;68.75
76285;BME280;71676;50.998;7.098;2023-08-31T05:08:52;100382.97;;;11.88;68.57
76285;BME280;71676;50.998;7.098;2023-08-31T05:11:19;100387.25;;;11.89;68.80
76285;BME280;71676;50.998;7.098;2023-08-31T05:13:47;100395.00;;;11.90;68.99
76285;BME280;71676;50.998;7.098;2023-08-31T05:16:13;100388.13;;;11.89;68.52
76285;BME280;71676;50.998;7.098;2023-08-31T05:18:40;100388.97;;;11.90;69.04
76285;BME280;71676;50.998;7.098;2023-08-31T05:21:07;100391.56;;;11.90;68.95
76285;BME280;71676;50.998;7.098;2023-08-31T05:23:34;100393.28;;;11.89;69.11
76285;BME280;71676;50.998;7.098;2023-08-31T05:26:02;100391.56;;;11.85;68.80
76285;BME280;71676;50.998;7.098;2023-08-31T05:28:28;100402.75;;;11.90;69.02
76285;BME280;71676;50.998;7.098;2023-08-31T05:30:56;100402.75;;;11.92;68.94
76285;BME280;71676;50.998;7.098;2023-08-31T05:33:24;100388.16;;;11.80;69.02
76285;BME280;71676;50.998;7.098;2023-08-31T05:35:54;100413.94;;;11.95;69.06
76285;BME280;71676;50.998;7.098;2023-08-31T05:38:20;100416.50;;;11.97;69.14
76285;BME280;71676;50.998;7.098;2023-08-31T05:40:47;100416.50;;;11.98;68.86
76285;BME280;71676;50.998;7.098;2023-08-31T05:43:15;100420.78;;;11.99;69.05
76285;BME280;71676;50.998;7.098;2023-08-31T05:45:42;100420.78;;;12.01;68.88
76285;BME280;71676;50.998;7.098;2023-08-31T05:48:09;100427.69;;;12.00;69.16
76285;BME280;71676;50.998;7.098;2023-08-31T05:50:35;100419.94;;;12.00;68.74
76285;BME280;71676;50.998;7.098;2023-08-31T05:53:03;100425.13;;;11.96;68.77
76285;BME280;71676;50.998;7.098;2023-08-31T05:55:30;100425.97;;;11.99;68.56
76285;BME280;71676;50.998;7.098;2023-08-31T05:57:58;100425.97;;;12.02;68.85
76285;BME280;71676;50.998;7.098;2023-08-31T06:00:27;100429.38;;;12.04;68.94
76285;BME280;71676;50.998;7.098;2023-08-31T06:02:54;100430.28;;;12.03;68.67
76285;BME280;71676;50.998;7.098;2023-08-31T06:05:20;100431.97;;;12.04;68.73
76285;BME280;71676;50.998;7.098;2023-08-31T06:07:47;100434.56;;;12.04;69.04
76285;BME280;71676;50.998;7.098;2023-08-31T06:10:13;100437.13;;;12.08;68.90
76285;BME280;71676;50.998;7.098;2023-08-31T06:12:40;100434.56;;;12.04;68.93
76285;BME280;71676;50.998;7.098;2023-08-31T06:15:07;100436.31;;;12.04;69.03
76285;BME280;71676;50.998;7.098;2023-08-31T06:17:35;100436.31;;;12.02;69.15
76285;BME280;71676;50.998;7.098;2023-08-31T06:20:02;100450.94;;;12.07;68.67
76285;BME280;71676;50.998;7.098;2023-08-31T06:22:30;100442.31;;;12.11;68.55
76285;BME280;71676;50.998;7.098;2023-08-31T06:24:57;100434.56;;;12.04;68.42
76285;BME280;71676;50.998;7.098;2023-08-31T06:27:23;100454.34;;;12.16;68.43
76285;BME280;71676;50.998;7.098;2023-08-31T06:29:50;100467.31;;;11.96;68.62
76285;BME280;71676;50.998;7.098;2023-08-31T06:32:17;100461.28;;;12.02;68.86
76285;BME280;71676;50.998;7.098;2023-08-31T06:34:45;100457.00;;;11.96;68.95
76285;BME280;71676;50.998;7.098;2023-08-31T06:37:12;100460.41;;;12.03;69.11
76285;BME280;71676;50.998;7.098;2023-08-31T06:39:38;100463.88;;;11.91;69.54
76285;BME280;71676;50.998;7.098;2023-08-31T06:42:06;100455.31;;;11.88;69.42
76285;BME280;71676;50.998;7.098;2023-08-31T06:44:32;100466.53;;;11.78;69.66
76285;BME280;71676;50.998;7.098;2023-08-31T06:46:59;100466.53;;;11.79;69.95
76285;BME280;71676;50.998;7.098;2023-08-31T06:49:26;100463.06;;;11.80;69.88
76285;BME280;71676;50.998;7.098;2023-08-31T06:51:55;100453.56;;;11.87;70.67
76285;BME280;71676;50.998;7.098;2023-08-31T06:54:21;100459.56;;;11.95;70.17
76285;BME280;71676;50.998;7.098;2023-08-31T06:56:48;100456.97;;;12.07;70.23
76285;BME280;71676;50.998;7.098;2023-08-31T06:59:15;100462.06;;;12.28;70.78
76285;BME280;71676;50.998;7.098;2023-08-31T07:01:42;100452.50;;;12.44;71.20
76285;BME280;71676;50.998;7.098;2023-08-31T07:04:08;100451.59;;;12.57;69.76
76285;BME280;71676;50.998;7.098;2023-08-31T07:06:35;100458.44;;;12.64;69.34
76285;BME280;71676;50.998;7.098;2023-08-31T07:09:03;100454.97;;;12.69;68.30
76285;BME280;71676;50.998;7.098;2023-08-31T07:11:33;100461.78;;;12.76;68.29
76285;BME280;71676;50.998;7.098;2023-08-31T07:14:00;100455.72;;;12.82;68.06
76285;BME280;71676;50.998;7.098;2023-08-31T07:16:27;100463.41;;;12.91;67.67
76285;BME280;71676;50.998;7.098;2023-08-31T07:18:53;100460.84;;;12.89;68.18
76285;BME280;71676;50.998;7.098;2023-08-31T07:21:20;100462.47;;;13.04;68.74
76285;BME280;71676;50.998;7.098;2023-08-31T07:23:47;100459.78;;;13.16;68.17
76285;BME280;71676;50.998;7.098;2023-08-31T07:26:15;100469.16;;;13.27;68.58
76285;BME280;71676;50.998;7.098;2023-08-31T07:28:42;100465.69;;;13.31;67.12
76285;BME280;71676;50.998;7.098;2023-08-31T07:31:09;100464.81;;;13.31;66.30
76285;BME280;71676;50.998;7.098;2023-08-31T07:33:36;100471.59;;;13.47;67.17
76285;BME280;71676;50.998;7.098;2023-08-31T07:36:04;100461.28;;;13.42;67.17
76285;BME280;71676;50.998;7.098;2023-08-31T07:38:31;100467.03;;;13.75;67.93
76285;BME280;71676;50.998;7.098;2023-08-31T07:40:58;100473.72;;;13.95;67.37
76285;BME280;71676;50.998;7.098;2023-08-31T07:43:26;100470.00;;;14.17;67.26
76285;BME280;71676;50.998;7.098;2023-08-31T07:45:53;100473.31;;;14.28;67.01
76285;BME280;71676;50.998;7.098;2023-08-31T07:48:20;100480.06;;;14.41;65.08
76285;BME280;71676;50.998;7.098;2023-08-31T07:50:47;100479.16;;;14.45;63.79
76285;BME280;71676;50.998;7.098;2023-08-31T07:53:14;100478.97;;;14.63;65.27
76285;BME280;71676;50.998;7.098;2023-08-31T07:55:50;100490.06;;;14.70;64.66
76285;BME280;71676;50.998;7.098;2023-08-31T07:58:17;100490.09;;;14.71;64.20
76285;BME280;71676;50.998;7.098;2023-08-31T08:00:45;100491.72;;;14.77;63.19
76285;BME280;71676;50.998;7.098;2023-08-31T08:03:11;100492.63;;;14.76;61.91
76285;BME280;71676;50.998;7.098;2023-08-31T08:05:39;100497.69;;;14.83;60.04
76285;BME280;71676;50.998;7.098;2023-08-31T08:08:05;100496.78;;;14.84;61.58
76285;BME280;71676;50.998;7.098;2023-08-31T08:10:32;100496.53;;;15.03;62.97
76285;BME280;71676;50.998;7.098;2023-08-31T08:12:59;100502.25;;;15.26;62.42
76285;BME280;71676;50.998;7.098;2023-08-31T08:15:26;100499.41;;;15.41;61.21
76285;BME280;71676;50.998;7.098;2023-08-31T08:17:54;100499.91;;;15.62;61.55
76285;BME280;71676;50.998;7.098;2023-08-31T08:20:22;100482.53;;;15.66;61.44
76285;BME280;71676;50.998;7.098;2023-08-31T08:22:49;100508.75;;;15.99;60.06
76285;BME280;71676;50.998;7.098;2023-08-31T08:25:17;100504.16;;;16.13;59.35
76285;BME280;71676;50.998;7.098;2023-08-31T08:27:44;100498.53;;;16.36;60.86
76285;BME280;71676;50.998;7.098;2023-08-31T08:30:11;100502.63;;;16.46;57.66
76285;BME280;71676;50.998;7.098;2023-08-31T08:32:37;100497.72;;;16.72;58.83
76285;BME280;71676;50.998;7.098;2023-08-31T08:35:08;100494.13;;;16.78;55.31
76285;BME280;71676;50.998;7.098;2023-08-31T08:37:38;100500.75;;;16.92;58.10
76285;BME280;71676;50.998;7.098;2023-08-31T08:40:10;100496.97;;;17.04;55.08
76285;BME280;71676;50.998;7.098;2023-08-31T08:42:40;100492.34;;;17.18;55.81
76285;BME280;71676;50.998;7.098;2023-08-31T08:45:09;100495.69;;;17.23;54.31
76285;BME280;71676;50.998;7.098;2023-08-31T08:47:39;100494.03;;;17.20;52.49
76285;BME280;71676;50.998;7.098;2023-08-31T08:50:09;100503.22;;;17.35;53.92
76285;BME280;71676;50.998;7.098;2023-08-31T08:52:36;100501.94;;;17.51;53.32
76285;BME280;71676;50.998;7.098;2023-08-31T08:55:04;100496.97;;;17.74;54.91
76285;BME280;71676;50.998;7.098;2023-08-31T08:57:32;100492.91;;;17.98;53.99
76285;BME280;71676;50.998;7.098;2023-08-31T08:59:58;100493.00;;;18.25;54.22
76285;BME280;71676;50.998;7.098;2023-08-31T09:02:25;100492.25;;;18.51;54.31
76285;BME280;71676;50.998;7.098;2023-08-31T09:04:52;100500.81;;;18.54;51.23
76285;BME280;71676;50.998;7.098;2023-08-31T09:07:21;100493.81;;;18.56;51.04
76285;BME280;71676;50.998;7.098;2023-08-31T09:09:49;100501.13;;;18.74;50.68
76285;BME280;71676;50.998;7.098;2023-08-31T09:12:16;100497.25;;;18.87;50.17
76285;BME280;71676;50.998;7.098;2023-08-31T09:14:43;100502.03;;;19.01;51.53
76285;BME280;71676;50.998;7.098;2023-08-31T09:17:10;100503.47;;;19.39;48.62
76285;BME280;71676;50.998;7.098;2023-08-31T09:19:37;100494.09;;;19.58;50.37
76285;BME280;71676;50.998;7.098;2023-08-31T09:22:04;100500.66;;;19.69;49.12
76285;BME280;71676;50.998;7.098;2023-08-31T09:24:41;100503.59;;;19.85;49.29
76285;BME280;71676;50.998;7.098;2023-08-31T09:27:10;100496.81;;;20.04;49.68
76285;BME280;71676;50.998;7.098;2023-08-31T09:29:38;100495.59;;;20.14;47.24
76285;BME280;71676;50.998;7.098;2023-08-31T09:32:05;100500.50;;;20.23;46.29
76285;BME280;71676;50.998;7.098;2023-08-31T09:34:36;100503.56;;;20.34;43.83
76285;BME280;71676;50.998;7.098;2023-08-31T09:37:06;100502.91;;;20.52;45.91
76285;BME280;71676;50.998;7.098;2023-08-31T09:39:35;100503.66;;;20.56;41.22
76285;BME280;71676;50.998;7.098;2023-08-31T09:42:04;100507.50;;;20.46;43.91
76285;BME280;71676;50.998;7.098;2023-08-31T09:44:31;100508.38;;;20.46;45.57
76285;BME280;71676;50.998;7.098;2023-08-31T09:46:58;100503.69;;;20.31;43.66
76285;BME280;71676;50.998;7.098;2023-08-31T09:49:25;100510.81;;;20.27;43.88
76285;BME280;71676;50.998;7.098;2023-08-31T09:51:52;100511.44;;;20.34;42.43
76285;BME280;71676;50.998;7.098;2023-08-31T09:54:20;100512.97;;;19.90;42.05
76285;BME280;71676;50.998;7.098;2023-08-31T09:56:49;100513.22;;;19.84;41.35
76285;BME280;71676;50.998;7.098;2023-08-31T09:59:17;100503.38;;;19.66;42.19
76285;BME280;71676;50.998;7.098;2023-08-31T10:01:45;100497.13;;;19.70;42.45
76285;BME280;71676;50.998;7.098;2023-08-31T10:04:13;100516.69;;;19.85;42.71
76285;BME280;71676;50.998;7.098;2023-08-31T10:06:40;100522.56;;;19.91;40.44
76285;BME280;71676;50.998;7.098;2023-08-31T10:09:07;100514.31;;;20.02;42.68
76285;BME280;71676;50.998;7.098;2023-08-31T10:11:37;100511.59;;;20.05;42.41
76285;BME280;71676;50.998;7.098;2023-08-31T10:14:04;100510.84;;;20.01;43.38
76285;BME280;71676;50.998;7.098;2023-08-31T10:16:33;100507.34;;;20.02;42.44
76285;BME280;71676;50.998;7.098;2023-08-31T10:19:01;100513.19;;;20.10;43.83
76285;BME280;71676;50.998;7.098;2023-08-31T10:21:28;100506.63;;;19.97;42.02
76285;BME280;71676;50.998;7.098;2023-08-31T10:23:55;100516.81;;;20.05;42.19
76285;BME280;71676;50.998;7.098;2023-08-31T10:26:25;100517.44;;;19.88;42.05
76285;BME280;71676;50.998;7.098;2023-08-31T10:28:52;100514.06;;;19.85;42.18
76285;BME280;71676;50.998;7.098;2023-08-31T10:31:20;100515.53;;;19.92;42.86
76285;BME280;71676;50.998;7.098;2023-08-31T10:33:55;100498.63;;;20.02;42.14
76285;BME280;71676;50.998;7.098;2023-08-31T10:36:34;100514.16;;;20.06;42.82
76285;BME280;71676;50.998;7.098;2023-08-31T10:39:06;100513.97;;;19.88;41.59
76285;BME280;71676;50.998;7.098;2023-08-31T10:41:34;100517.44;;;19.88;42.32
76285;BME280;71676;50.998;7.098;2023-08-31T10:44:01;100512.31;;;19.85;42.13
76285;BME280;71676;50.998;7.098;2023-08-31T10:46:32;100519.41;;;19.82;42.02
76285;BME280;71676;50.998;7.098;2023-08-31T10:49:01;100516.84;;;19.80;42.20
76285;BME280;71676;50.998;7.098;2023-08-31T10:51:30;100513.31;;;19.81;42.14
76285;BME280;71676;50.998;7.098;2023-08-31T10:54:05;100518.09;;;19.95;41.52
76285;BME280;71676;50.998;7.098;2023-08-31T10:56:32;100520.41;;;20.02;41.55
76285;BME280;71676;50.998;7.098;2023-08-31T10:58:59;100506.72;;;19.45;39.22
76285;BME280;71676;50.998;7.098;2023-08-31T11:01:51;100516.03;;;19.78;41.73
76285;BME280;71676;50.998;7.098;2023-08-31T11:04:20;100514.97;;;19.84;40.80
76285;BME280;71676;50.998;7.098;2023-08-31T11:06:46;100505.44;;;19.57;40.36
76285;BME280;71676;50.998;7.098;2023-08-31T11:09:18;100504.34;;;19.64;40.34
76285;BME280;71676;50.998;7.098;2023-08-31T11:11:45;100509.03;;;19.54;40.48
76285;BME280;71676;50.998;7.098;2023-08-31T11:14:12;100505.38;;;19.58;40.66
76285;BME280;71676;50.998;7.098;2023-08-31T11:16:38;100505.91;;;19.43;40.36
76285;BME280;71676;50.998;7.098;2023-08-31T11:19:05;100504.44;;;19.61;41.15
76285;BME280;71676;50.998;7.098;2023-08-31T11:21:33;100498.97;;;19.93;41.08
76285;BME280;71676;50.998;7.098;2023-08-31T11:24:02;100497.66;;;20.04;42.06
76285;BME280;71676;50.998;7.098;2023-08-31T11:26:32;100482.34;;;20.18;41.25
76285;BME280;71676;50.998;7.098;2023-08-31T11:28:59;100486.09;;;20.34;41.24
76285;BME280;71676;50.998;7.098;2023-08-31T11:31:26;100476.41;;;20.60;40.41
76285;BME280;71676;50.998;7.098;2023-08-31T11:33:54;100471.41;;;20.75;39.22
76285;BME280;71676;50.998;7.098;2023-08-31T11:36:21;100471.53;;;20.95;39.20
76285;BME280;71676;50.998;7.098;2023-08-31T11:38:49;100477.00;;;21.11;37.95
76285;BME280;71676;50.998;7.098;2023-08-31T11:41:16;100474.59;;;21.26;38.66
76285;BME280;71676;50.998;7.098;2023-08-31T11:43:43;100471.06;;;21.49;38.26
76285;BME280;71676;50.998;7.098;2023-08-31T11:46:11;100475.78;;;21.81;38.39
76285;BME280;71676;50.998;7.098;2023-08-31T11:48:38;100470.38;;;21.84;38.31
76285;BME280;71676;50.998;7.098;2023-08-31T11:51:06;100470.25;;;21.87;38.90
76285;BME280;71676;50.998;7.098;2023-08-31T11:53:33;100471.69;;;21.94;36.67
76285;BME280;71676;50.998;7.098;2023-08-31T11:56:03;100465.66;;;21.92;37.80
76285;BME280;71676;50.998;7.098;2023-08-31T11:58:29;100465.34;;;21.80;38.05
76285;BME280;71676;50.998;7.098;2023-08-31T12:00:57;100474.88;;;21.82;38.23
76285;BME280;71676;50.998;7.098;2023-08-31T12:03:24;100485.22;;;21.65;37.28
76285;BME280;71676;50.998;7.098;2023-08-31T12:05:52;100490.78;;;21.16;39.02
76285;BME280;71676;50.998;7.098;2023-08-31T12:08:24;100490.50;;;21.02;39.82
76285;BME280;71676;50.998;7.098;2023-08-31T12:10:51;100485.41;;;21.19;39.58
76285;BME280;71676;50.998;7.098;2023-08-31T12:13:20;100489.94;;;20.94;38.90
76285;BME280;71676;50.998;7.098;2023-08-31T12:15:47;100491.66;;;21.16;37.72
76285;BME280;71676;50.998;7.098;2023-08-31T12:18:18;100496.88;;;21.16;38.36
76285;BME280;71676;50.998;7.098;2023-08-31T12:20:45;100488.31;;;21.33;38.55
76285;BME280;71676;50.998;7.098;2023-08-31T12:23:12;100496.63;;;21.44;38.64
76285;BME280;71676;50.998;7.098;2023-08-31T12:25:45;100485.41;;;21.40;37.14
76285;BME280;71676;50.998;7.098;2023-08-31T12:28:11;100500.09;;;21.44;37.35
76285;BME280;71676;50.998;7.098;2023-08-31T12:30:42;100487.28;;;21.37;36.81
76285;BME280;71676;50.998;7.098;2023-08-31T12:33:09;100494.31;;;21.58;35.29
76285;BME280;71676;50.998;7.098;2023-08-31T12:35:36;100494.22;;;21.38;37.16
76285;BME280;71676;50.998;7.098;2023-08-31T12:38:03;100496.72;;;21.41;36.91
76285;BME280;71676;50.998;7.098;2023-08-31T12:40:30;100501.06;;;21.42;36.68
76285;BME280;71676;50.998;7.098;2023-08-31T12:42:57;100495.16;;;21.15;36.79
76285;BME280;71676;50.998;7.098;2023-08-31T12:45:23;100495.22;;;21.14;36.95
76285;BME280;71676;50.998;7.098;2023-08-31T12:47:51;100490.72;;;21.17;37.56
76285;BME280;71676;50.998;7.098;2023-08-31T12:50:18;100494.41;;;21.13;38.49
76285;BME280;71676;50.998;7.098;2023-08-31T12:52:45;100488.59;;;21.05;38.43